PWSweather.com
Personal Weather Stations
Station Observations
CW6888
Sola Virtus Observatory, Norrisville, MD

Sola Virtus ObservatoryNorrisville, MD

Lat: 39.7025, Lon: -76.5447

Elevation: 738

Station Type: Davis Vantage Pro2

http://sola-virtus-observatory.org

Latest ConditionsUpdated 7:00:00 AM EST Sunday, Jan 20, 2019
Currently Today's Max Today's Min Today's Average
Temperature 41.8°F5.4°C 41.8°F5.4°C 35.9°F2.2°C 38.2°F3.4°C
Dew Point 40.7°F4.8°C 40.7°F4.8°C 34.3°F1.3°C 36.7°F2.6°C
Winds 2.0 mph S3.2 kmh S 7.0 mph -11.3 kmh - - 4.0 mph 6.4 kmh
Wind Gusts 4.0 mph6.4 kmh 12.0 mph19.3 kmh - -
Humidity 96% 96% 93% 95%
Pressure 29.29 in991.9 mb 29.69 in1005.4 mb 29.29 in991.9 mb -
Precipitation - 0.48 in12.2 mm - -
Hour Temp Dew Point Humidity Winds Wind Gusts Pressure Precip Precip Rate Daily Precip Total
07:00 AM 41.8°F5.4°C 40.7°F4.8°C 96% 2.0 mph S3.2 kmh S 4.0 mph6.4 kmh 29.29 in991.9 mb 0.00 in0.0 mm 0.00 in0.0 mm 0.48 in12.2 mm
06:40 AM 41.3°F5.2°C 40.0°F4.4°C 95% 3.0 mph SSE4.8 kmh SSE 5.0 mph8.0 kmh 29.30 in992.2 mb 0.00 in0.0 mm 0.00 in0.0 mm 0.48 in12.2 mm
06:20 AM 41.3°F5.2°C 40.0°F4.4°C 95% 3.0 mph SE4.8 kmh SE 4.0 mph6.4 kmh 29.29 in991.9 mb 0.00 in0.0 mm 0.00 in0.0 mm 0.48 in12.2 mm
06:00 AM 40.5°F4.7°C 39.2°F4.0°C 95% 3.0 mph SE4.8 kmh SE 4.0 mph6.4 kmh 29.31 in992.6 mb 0.00 in0.0 mm 0.00 in0.0 mm 0.48 in12.2 mm
05:40 AM 40.5°F4.7°C 39.2°F4.0°C 95% 2.0 mph SE3.2 kmh SE 3.0 mph4.8 kmh 29.34 in993.6 mb 0.00 in0.0 mm 0.00 in0.0 mm 0.48 in12.2 mm
05:20 AM 39.7°F4.3°C 38.4°F3.6°C 95% 1.0 mph SE1.6 kmh SE 4.0 mph6.4 kmh 29.35 in993.9 mb 0.00 in0.0 mm 0.00 in0.0 mm 0.48 in12.2 mm
05:00 AM 39.9°F4.4°C 38.6°F3.7°C 95% 1.0 mph SE1.6 kmh SE 2.0 mph3.2 kmh 29.38 in994.9 mb 0.00 in0.0 mm 0.00 in0.0 mm 0.48 in12.2 mm
04:40 AM 39.3°F4.1°C 38.0°F3.3°C 95% 2.0 mph SSW3.2 kmh SSW 5.0 mph8.0 kmh 29.41 in995.9 mb 0.01 in0.3 mm 0.00 in0.0 mm 0.48 in12.2 mm
04:20 AM 39.0°F3.9°C 37.7°F3.2°C 95% 6.0 mph SE9.7 kmh SE 9.0 mph14.5 kmh 29.37 in994.6 mb 0.01 in0.3 mm 0.00 in0.0 mm 0.48 in12.2 mm
04:00 AM 38.4°F3.6°C 37.1°F2.8°C 95% 5.0 mph SE8.0 kmh SE 8.0 mph12.9 kmh 29.43 in996.6 mb 0.03 in0.8 mm 0.00 in0.0 mm 0.48 in12.2 mm
03:40 AM 38.3°F3.5°C 37.0°F2.8°C 95% 5.0 mph SE8.0 kmh SE 9.0 mph14.5 kmh 29.46 in997.6 mb 0.05 in1.3 mm 0.00 in0.0 mm 0.47 in11.9 mm
03:20 AM 37.3°F2.9°C 36.0°F2.2°C 95% 5.0 mph SE8.0 kmh SE 8.0 mph12.9 kmh 29.46 in997.6 mb 0.09 in2.3 mm 0.00 in0.0 mm 0.47 in11.9 mm
03:00 AM 37.0°F2.8°C 35.7°F2.1°C 95% 6.0 mph SE9.7 kmh SE 9.0 mph14.5 kmh 29.49 in998.6 mb 0.12 in3.0 mm 0.00 in0.0 mm 0.45 in11.4 mm
02:40 AM 36.6°F2.6°C 35.0°F1.7°C 94% 5.0 mph SE8.0 kmh SE 8.0 mph12.9 kmh 29.51 in999.3 mb 0.14 in3.6 mm 0.03 in0.8 mm 0.41 in10.4 mm
02:20 AM 36.4°F2.4°C 34.8°F1.6°C 94% 6.0 mph SE9.7 kmh SE 10.0 mph16.1 kmh 29.55 in1000.7 mb 0.13 in3.3 mm 0.06 in1.5 mm 0.38 in9.7 mm
02:00 AM 36.1°F2.3°C 34.5°F1.4°C 94% 7.0 mph SE11.3 kmh SE 12.0 mph19.3 kmh 29.56 in1001.0 mb 0.11 in2.8 mm 0.02 in0.5 mm 0.33 in8.4 mm
01:40 AM 36.1°F2.3°C 34.5°F1.4°C 94% 7.0 mph SE11.3 kmh SE 11.0 mph17.7 kmh 29.59 in1002.0 mb 0.10 in2.5 mm 0.00 in0.0 mm 0.27 in6.9 mm
01:20 AM 35.9°F2.2°C 34.3°F1.3°C 94% 6.0 mph SE9.7 kmh SE 10.0 mph16.1 kmh 29.61 in1002.7 mb 0.17 in4.3 mm 0.00 in0.0 mm 0.25 in6.4 mm
01:00 AM 35.9°F2.2°C 34.3°F1.3°C 94% 6.0 mph SE9.7 kmh SE 10.0 mph16.1 kmh 29.63 in1003.4 mb 0.21 in5.3 mm 0.00 in0.0 mm 0.21 in5.3 mm
12:40 AM 36.0°F2.2°C 34.4°F1.3°C 94% 4.0 mph SE6.4 kmh SE 11.0 mph17.7 kmh 29.66 in1004.4 mb 0.27 in6.9 mm 0.00 in0.0 mm 0.17 in4.3 mm
12:20 AM 35.9°F2.2°C 34.3°F1.3°C 94% 3.0 mph SE4.8 kmh SE 9.0 mph14.5 kmh 29.66 in1004.4 mb 0.27 in6.9 mm 0.00 in0.0 mm 0.07 in1.8 mm
12:00 AM 36.1°F2.3°C 34.3°F1.3°C 93% 1.0 mph SE1.6 kmh SE 5.0 mph8.0 kmh 29.69 in1005.4 mb 0.31 in7.9 mm 0.00 in0.0 mm 0.31 in7.9 mm